Aviation Digital Data Service (ADDS)

Output produced by METARs form (1826 UTC 22 November 2017)
found at http://www.aviationweather.gov/adds/metars/
 
KTCC 221723Z 2218/2318 24007KT P6SM BKN250 
     FM230800 VRB03KT P6SM FEW250
       
KTCL 221738Z 2218/2318 02010KT P6SM SCT250 
     FM230000 35003KT P6SM SKC 
     FM231500 01005KT P6SM SCT025
       
TAF KTCM 221303Z 2213/2319 17009KT 8000 -SHRA BKN030 QNH2996INS 
     BECMG 2214/2215 19012KT 8000 -RA BKN040 WS020/21035KT QNH2997INS 
     BECMG 2220/2221 18015G25KT 8000 -SHRA BKN020 OVC050 520009 QNH2989INS 
     TEMPO 2221/2309 18025G35KT 4800 SHRA BR 530009 
     BECMG 2308/2309 18012G18KT 8000 -RA BKN020 OVC040 QNH2977INS 
     BECMG 2314/2315 20025G35KT 6000 SHRA BKN010 BKN030 530009 QNH2978INS TX18/2219Z TN12/2313Z
       
KTCS 221720Z 2218/2318 17006KT P6SM SCT250 
     FM230200 31005KT P6SM FEW250
       
KTEB 221730Z 2218/2318 32013G21KT P6SM SCT060 
     TEMPO 2218/2220 BKN060 
     FM222300 33013G21KT P6SM SKC 
     FM230300 32010KT P6SM SKC 
     FM230700 32005KT P6SM SKC 
     FM231400 30005KT P6SM SCT250
       
KTEX 221733Z 2218/2318 28006KT P6SM FEW080 SCT250 
     FM230200 15006KT P6SM FEW250
       
TAF KTIK 221800Z 2218/2324 34006KT 9999 FEW200 QNH3027INS 
     BECMG 2300/2301 20006KT 9999 FEW060 QNH3005INS TX08/2221Z TN01/2318Z
       
KTIX 221753Z 2218/2318 04011KT P6SM SCT025 
     FM230600 04004KT P6SM VCSH SCT015 BKN035 
     FM231400 10009KT P6SM VCSH SCT025 OVC040
       
KTLH 221720Z 2218/2318 03006KT P6SM BKN015 
     FM230300 03005KT 3SM -RA OVC010
       
KTMB 221731Z 2218/2318 VRB04KT P6SM FEW030 
     FM221900 11010KT P6SM SCT030 SCT250 
     FM230100 VRB03KT P6SM VCSH SCT030 BKN250 
     FM231500 14009KT P6SM VCSH SCT030 BKN070 BKN100
       
KTOI 221738Z 2218/2318 01011KT P6SM SCT250 
     FM230100 35005KT P6SM BKN250 
     FM231100 34004KT P6SM BKN025
       
KTOL 221730Z 2218/2318 33008KT P6SM BKN040 
     FM222200 27005KT P6SM SCT040 
     FM230900 22005KT P6SM BKN040 OVC100
       
KTOP 221722Z 2218/2318 20006KT P6SM SCT250 
     FM231400 30004KT P6SM SKC
       
KTPA 221739Z 2218/2324 26006KT P6SM SCT035 SCT130 BKN250 
     FM222100 30006KT P6SM SCT040 BKN130 
     FM230200 06006KT P6SM SCT040 BKN130 
     FM230800 08005KT P6SM VCSH SCT015 BKN040 
     FM231400 13006KT P6SM VCSH SCT015 BKN025 
     FM231700 17007KT P6SM VCTS SCT020CB BKN035
       
KTPH 221741Z 2218/2318 VRB05KT P6SM SKC 
     FM230100 35006KT P6SM SCT250 
     FM231700 VRB04KT P6SM FEW200
       
KTRI 221721Z 2218/2318 36005KT P6SM FEW035 
     FM230000 VRB02KT P6SM FEW250
       
KTRK 221136Z 2212/2312 00000KT 1/2SM FG VV002 
     FM221800 20009KT P6SM SCT140 BKN200 
     FM230200 VRB03KT P6SM SCT110 BKN200
       
KTRM 221723Z 2218/2318 VRB06KT P6SM SKC
       
KTTD 221734Z 2218/2318 09015G28KT P6SM -RA SCT035 OVC050 
     FM230300 10012KT P6SM -RA BKN025 OVC040 
     FM231300 14010KT 5SM -RA BR SCT015 OVC025
       
KTTN 221733Z 2218/2318 33012G26KT P6SM SCT045 
     TEMPO 2218/2220 BKN045 
     FM230000 34009KT P6SM SKC 
     FM230800 33005KT P6SM SKC
       
KTUL 221720Z 2218/2318 04005KT P6SM SCT250 
     FM231400 20007KT P6SM SCT250
       
KTUP 221729Z 2218/2318 36011G19KT P6SM SKC 
     FM222000 03010KT P6SM SKC 
     FM230100 03003KT P6SM SKC 
     FM231400 04006KT P6SM SKC
       
KTUS 221725Z 2218/2318 11011KT P6SM FEW250 
     TEMPO 2218/2221 12015G24KT 
     FM222300 08007KT P6SM FEW250 
     FM230400 14009KT P6SM SKC
       
KTVC 221740Z 2218/2318 26004KT P6SM OVC040 
     FM230000 VRB03KT P6SM OVC035 
     FM230200 21004KT P6SM OVC110 
     FM230500 21006KT P6SM OVC080 
     FM230900 23005KT P6SM OVC050
       
KTVL 221606Z 2216/2312 00000KT 1/2SM FZFG OVC002 
     FM221800 VRB04KT P6SM SCT200 
     FM222100 19010KT P6SM SCT120 BKN180 
     FM230200 VRB04KT P6SM SCT100 BKN180
       
KTWF 221720Z 2218/2318 18007KT P6SM SCT100 BKN200
       
KTXK 221721Z 2218/2318 03010KT P6SM SCT250 
     FM230000 00000KT P6SM BKN250 
     FM231400 VRB03KT P6SM BKN200
       
KTYR 221721Z 2218/2318 02008KT P6SM SCT250 
     FM230000 VRB03KT P6SM BKN250 
     FM231400 VRB04KT P6SM BKN200
       
KTYS 221721Z 2218/2318 02008KT P6SM FEW250 
     FM230000 VRB03KT P6SM FEW250